Time;durP1;ratioP1;P1;durP2;ratioP2;P2;SDS_P1;SDS_P2;PMS_P1;PMS_P2;Temp;Humidity;BMP_temperature;BMP_pressure;BME280_temperature;BME280_humidity;BME280_pressure;Samples;Min_cycle;Max_cycle;Signal;HPM_P1;HPM_P2
2022/12/11 00:05:46;;;;;;;50.40;16.40;;;-0.30;99.90;;;;;;6134517;23;20014;-79
2022/12/11 00:08:13;;;;;;;90.13;23.52;;;-0.30;99.90;;;;;;6128432;23;20010;-79
2022/12/11 00:10:55;;;;;;;52.92;19.02;;;-1.50;99.90;;;;;;6110864;23;20009;-78
2022/12/11 00:13:37;;;;;;;51.95;15.35;;;0.60;99.90;;;;;;6109439;23;20010;-79
2022/12/11 00:16:05;;;;;;;49.97;16.63;;;1.60;99.90;;;;;;6109635;23;20085;-78
2022/12/11 00:19:20;;;;;;;;;;;;;;;;;;;;;
2022/12/11 00:22:15;;;;;;;73.97;22.03;;;-0.40;99.90;;;;;;6159140;23;20021;-79
2022/12/11 00:24:49;;;;;;;85.10;24.23;;;-0.20;99.90;;;;;;6107193;23;20493;-78
2022/12/11 00:27:30;;;;;;;57.50;17.83;;;-0.60;99.90;;;;;;6090689;23;20009;-78
2022/12/11 00:30:02;;;;;;;63.63;17.60;;;1.70;99.90;;;;;;6085378;23;20015;-77
2022/12/11 00:32:28;;;;;;;70.03;19.60;;;-0.40;99.90;;;;;;6085351;23;20021;-78
2022/12/11 00:35:43;;;;;;;59.95;16.40;;;1.80;99.90;;;;;;6108898;23;20377;-78
2022/12/11 00:38:22;;;;;;;79.55;20.40;;;-0.30;99.90;;;;;;6085732;23;20020;-77
2022/12/11 00:41:19;;;;;;;44.70;15.27;;;-0.10;99.90;;;;;;6199784;23;20065;-78
2022/12/11 00:48:17;;;;;;;61.72;16.48;;;-0.20;99.90;;;;;;6150010;23;20260;-79
2022/12/11 00:55:06;;;;;;;66.10;17.65;;;-0.40;99.90;;;;;;6069402;23;20305;-79
2022/12/11 01:00:24;;;;;;;46.88;15.63;;;-0.10;99.90;;;;;;6102954;23;20030;-78
2022/12/11 01:02:50;;;;;;;50.63;15.40;;;-0.30;99.90;;;;;;6139317;23;20021;-79
2022/12/11 01:05:21;;;;;;;65.13;17.50;;;-0.20;99.90;;;;;;6183714;23;20035;-78
2022/12/11 01:07:47;;;;;;;47.78;16.30;;;-0.10;99.90;;;;;;6174769;23;20008;-79
2022/12/11 01:10:25;;;;;;;51.05;13.80;;;0.10;99.90;;;;;;6198268;23;20016;-78
2022/12/11 01:13:21;;;;;;;39.22;13.85;;;-0.20;99.90;;;;;;6199943;23;20016;-79
2022/12/11 01:15:49;;;;;;;36.38;13.10;;;0.40;99.90;;;;;;6171208;23;20198;-78
2022/12/11 01:18:33;;;;;;;43.28;14.85;;;2.20;99.90;;;;;;6172949;23;20012;-78
2022/12/11 01:21:08;;;;;;;41.95;12.88;;;-0.10;99.90;;;;;;6224861;23;20016;-78
2022/12/11 01:23:37;;;;;;;53.78;15.55;;;0.00;99.90;;;;;;6200038;23;20015;-78
2022/12/11 01:26:14;;;;;;;49.25;14.30;;;-0.20;99.90;;;;;;6200342;23;20047;-77
2022/12/11 01:29:21;;;;;;;33.30;12.95;;;0.70;99.90;;;;;;6198104;23;20016;-79
2022/12/11 01:32:08;;;;;;;;;;;0.10;99.90;;;;;;6206433;23;20019;-79
2022/12/11 01:34:34;;;;;;;38.40;11.65;;;-0.80;99.90;;;;;;6200133;23;20359;-78
2022/12/11 01:37:45;;;;;;;;;;;;;;;;;;;;;
2022/12/11 01:40:20;;;;;;;45.78;11.88;;;-0.80;99.90;;;;;;6132592;23;20020;-78
2022/12/11 01:46:51;;;;;;;38.17;12.32;;;0.10;99.90;;;;;;6207450;23;20016;-79
2022/12/11 01:50:09;;;;;;;40.25;13.10;;;0.20;99.90;;;;;;6142642;23;20021;-79
2022/12/11 01:53:13;;;;;;;43.90;12.77;;;0.40;99.90;;;;;;6185752;23;20027;-78
2022/12/11 01:55:40;;;;;;;38.95;13.18;;;2.00;99.90;;;;;;6224046;23;20055;-78
2022/12/11 01:58:54;;;;;;;50.65;14.77;;;0.40;99.90;;;;;;6188304;22;20031;-78
2022/12/11 02:01:43;;;;;;;44.15;13.93;;;-1.20;99.90;;;;;;6223557;22;20348;-79
2022/12/11 02:04:38;;;;;;;39.17;12.63;;;1.60;99.90;;;;;;6253670;22;20011;-78
2022/12/11 02:07:12;;;;;;;45.83;14.50;;;0.60;99.90;;;;;;6204653;22;20015;-78
2022/12/11 02:09:51;;;;;;;46.28;15.23;;;0.30;99.90;;;;;;6228147;22;20043;-77
2022/12/11 02:12:43;;;;;;;40.40;13.40;;;2.50;99.90;;;;;;6228081;22;20023;-80
2022/12/11 02:19:46;;;;;;;58.17;15.93;;;0.10;99.90;;;;;;6039611;23;20329;-77
2022/12/11 02:22:37;;;;;;;46.00;13.75;;;0.30;99.90;;;;;;6077944;23;20545;-79
2022/12/11 02:25:40;;;;;;;53.47;14.88;;;0.40;99.90;;;;;;6254579;22;20011;-79
2022/12/11 02:28:41;;;;;;;60.63;16.80;;;0.40;99.90;;;;;;6251070;22;20015;-79
2022/12/11 02:31:39;;;;;;;44.47;13.27;;;-0.70;99.90;;;;;;6228222;22;20189;-77
2022/12/11 02:34:28;;;;;;;54.30;15.10;;;0.60;99.90;;;;;;6212059;22;20034;-77
2022/12/11 02:36:59;;;;;;;59.50;14.38;;;0.40;99.90;;;;;;6229290;22;20474;-78
2022/12/11 02:39:30;;;;;;;57.65;14.88;;;2.70;99.90;;;;;;6228374;22;20016;-78
2022/12/11 02:41:56;;;;;;;54.35;15.07;;;0.30;99.90;;;;;;6254234;22;20286;-78
2022/12/11 02:44:26;;;;;;;48.65;13.70;;;0.90;99.90;;;;;;6203759;22;20007;-78
2022/12/11 02:46:55;;;;;;;45.88;13.93;;;0.20;99.90;;;;;;6252897;22;20015;-78
2022/12/11 02:49:34;;;;;;;40.05;12.57;;;0.30;99.90;;;;;;6252933;22;20008;-79
2022/12/11 02:55:35;;;;;;;58.58;15.95;;;1.80;99.90;;;;;;6258806;22;20057;-78
2022/12/11 02:58:16;;;;;;;58.88;15.85;;;-0.30;99.90;;;;;;6230234;22;20022;-77
2022/12/11 03:00:51;;;;;;;61.55;15.57;;;0.50;99.90;;;;;;6255030;22;20059;-79
2022/12/11 03:11:29;;;;;;;55.95;15.38;;;-0.10;99.90;;;;;;5925448;24;20024;-77
2022/12/11 03:13:57;;;;;;;55.28;15.15;;;-0.80;99.90;;;;;;5939587;24;20372;-76
2022/12/11 03:16:55;;;;;;;65.68;17.15;;;2.00;99.90;;;;;;5995634;23;20015;-77
2022/12/11 03:19:34;;;;;;;45.45;13.65;;;0.60;99.90;;;;;;6255157;22;20334;-77
2022/12/11 03:22:17;;;;;;;51.88;15.60;;;0.70;99.90;;;;;;6255532;22;20050;-76
2022/12/11 03:24:45;;;;;;;58.13;15.50;;;0.40;99.90;;;;;;6230109;22;20015;-81
2022/12/11 03:27:29;;;;;;;54.75;13.13;;;0.40;99.90;;;;;;6228551;22;20071;-77
2022/12/11 03:29:59;;;;;;;49.28;13.23;;;0.60;99.90;;;;;;6230395;22;20058;-79
2022/12/11 03:32:30;;;;;;;63.05;18.00;;;0.50;99.90;;;;;;6254393;22;20054;-78
2022/12/11 03:35:28;;;;;;;63.08;17.33;;;0.40;99.90;;;;;;6229850;22;20042;-78
2022/12/11 03:38:19;;;;;;;46.20;15.13;;;0.70;99.90;;;;;;6228840;22;20074;-79
2022/12/11 03:41:36;;;;;;;50.05;14.18;;;0.60;99.90;;;;;;6207109;22;20104;-79
2022/12/11 03:44:07;;;;;;;42.67;12.18;;;1.00;99.90;;;;;;6228903;22;20012;-81
2022/12/11 03:46:37;;;;;;;39.88;11.73;;;0.70;99.90;;;;;;6230044;22;20023;-79
2022/12/11 03:49:15;;;;;;;50.28;13.50;;;1.40;99.90;;;;;;6255695;22;20068;-81
2022/12/11 03:51:42;;;;;;;54.63;13.80;;;0.60;99.90;;;;;;6231137;22;20100;-80
2022/12/11 03:54:08;;;;;;;60.03;16.55;;;2.00;99.90;;;;;;6231432;22;20180;-79
2022/12/11 03:56:37;;;;;;;46.75;14.02;;;0.70;99.90;;;;;;6182031;22;20443;-79
2022/12/11 03:59:03;;;;;;;38.65;12.95;;;0.50;99.90;;;;;;6254612;22;20016;-80
2022/12/11 04:01:29;;;;;;;49.13;13.82;;;0.70;99.90;;;;;;6206176;22;20599;-79
2022/12/11 04:03:54;;;;;;;45.63;14.25;;;2.50;99.90;;;;;;6258108;22;20245;-77
2022/12/11 04:06:20;;;;;;;51.85;13.60;;;2.40;99.90;;;;;;6206303;22;20294;-78
2022/12/11 04:08:46;;;;;;;59.40;15.45;;;0.80;99.90;;;;;;6206966;22;20004;-82
2022/12/11 04:16:55;;;;;;;42.60;13.25;;;0.80;99.90;;;;;;6256956;22;20060;-78
2022/12/11 04:24:59;;;;;;;48.58;14.05;;;0.80;99.90;;;;;;6257356;22;20489;-79
2022/12/11 04:30:19;;;;;;;52.92;13.95;;;0.60;99.90;;;;;;6254847;22;20015;-77
2022/12/11 04:32:47;;;;;;;67.38;17.40;;;-0.40;99.90;;;;;;6256896;22;20202;-76
2022/12/11 04:39:04;;;;;;;;;;;;;;;;;;;;;
2022/12/11 04:46:52;;;;;;;53.75;14.80;;;-0.30;99.90;;;;;;6121997;22;20024;-76
2022/12/11 04:49:11;;;;;;;47.97;13.43;;;1.70;99.90;;;;;;6252386;22;20018;-80
2022/12/11 04:51:50;;;;;;;;;;;;;;;;;;;;;
2022/12/11 04:54:28;;;;;;;54.53;14.32;;;2.70;99.90;;;;;;6282991;22;20305;-77
2022/12/11 05:02:58;;;;;;;41.08;13.70;;;0.80;99.90;;;;;;6139552;23;20363;-78
2022/12/11 05:05:23;;;;;;;41.08;14.18;;;-0.60;99.90;;;;;;6139571;23;20078;-80
2022/12/11 05:07:56;;;;;;;38.78;13.43;;;0.50;99.90;;;;;;6165015;23;20013;-77
2022/12/11 05:10:40;;;;;;;45.60;14.48;;;2.40;99.90;;;;;;6167815;23;20035;-78
2022/12/11 05:13:08;;;;;;;49.35;15.00;;;0.80;99.90;;;;;;6114943;23;20033;-80
2022/12/11 05:15:34;;;;;;;51.50;16.50;;;0.90;99.90;;;;;;6116633;23;20012;-78
2022/12/11 05:18:00;;;;;;;50.83;13.73;;;0.80;99.90;;;;;;6190473;23;20027;-80
2022/12/11 05:20:31;;;;;;;45.53;14.73;;;3.20;99.90;;;;;;6138330;23;20013;-78
2022/12/11 05:22:57;;;;;;;49.75;16.27;;;0.70;99.90;;;;;;6116050;23;20045;-79
2022/12/11 05:25:25;;;;;;;53.67;15.63;;;0.40;99.90;;;;;;6140225;23;20008;-79
2022/12/11 05:27:51;;;;;;;49.80;15.70;;;2.90;99.90;;;;;;6092012;23;20009;-77
2022/12/11 05:30:20;;;;;;;42.75;13.38;;;0.80;99.90;;;;;;6209160;22;20062;-77
2022/12/11 05:32:48;;;;;;;44.25;13.30;;;1.00;99.90;;;;;;6180014;22;20012;-77
2022/12/11 05:35:49;;;;;;;48.80;13.35;;;1.00;99.90;;;;;;6231680;22;20067;-77
2022/12/11 05:38:15;;;;;;;43.83;15.05;;;1.00;99.90;;;;;;6256249;22;20011;-78
2022/12/11 05:40:41;;;;;;;38.22;11.80;;;2.80;99.90;;;;;;6230743;22;20043;-78
2022/12/11 05:43:12;;;;;;;44.75;13.40;;;2.30;99.90;;;;;;6256088;22;20015;-77
2022/12/11 05:45:38;;;;;;;40.25;13.77;;;2.80;99.90;;;;;;6253583;22;20077;-78
2022/12/11 05:48:04;;;;;;;48.38;15.18;;;2.10;99.90;;;;;;6256985;22;20317;-77
2022/12/11 05:55:00;;;;;;;46.88;13.30;;;0.80;99.90;;;;;;6230181;22;20023;-78
2022/12/11 05:57:35;;;;;;;52.80;14.40;;;-0.30;99.90;;;;;;6161584;22;20063;-76
2022/12/11 06:04:59;;;;;;;50.22;14.57;;;2.50;99.90;;;;;;6020506;23;20028;-79
2022/12/11 06:07:34;;;;;;;42.45;12.30;;;1.20;99.90;;;;;;6008418;23;20044;-77
2022/12/11 06:10:03;;;;;;;39.67;12.77;;;0.90;99.90;;;;;;6075716;23;20028;-77
2022/12/11 06:12:35;;;;;;;43.08;13.52;;;1.10;99.90;;;;;;6047772;23;20076;-77
2022/12/11 06:15:12;;;;;;;44.63;13.48;;;0.70;99.90;;;;;;6164751;23;20071;-78
2022/12/11 06:17:38;;;;;;;;;;;1.90;99.90;;;;;;6139813;23;20019;-80
2022/12/11 06:20:04;;;;;;;37.83;11.63;;;2.90;99.90;;;;;;6164918;23;19908;-77
2022/12/11 06:22:30;;;;;;;37.20;12.93;;;0.10;99.90;;;;;;6139254;23;20017;-80
2022/12/11 06:24:56;;;;;;;38.03;11.57;;;2.40;99.90;;;;;;6140277;23;20031;-79
2022/12/11 06:27:22;;;;;;;32.95;11.10;;;2.00;99.90;;;;;;6114434;23;20055;-80
2022/12/11 06:29:47;;;;;;;38.53;11.90;;;0.80;99.90;;;;;;6140198;23;20330;-77
2022/12/11 06:32:24;;;;;;;38.47;12.50;;;2.50;99.90;;;;;;6164465;23;20021;-78
2022/12/11 06:37:58;;;;;;;33.95;12.18;;;2.50;99.90;;;;;;6177611;22;20329;-78
2022/12/11 06:41:18;;;;;;;;;;;;;;;;;;;;;
2022/12/11 06:44:29;;;;;;;;;;;;;;;;;;;;;
2022/12/11 06:47:23;;;;;;;41.45;13.20;;;1.60;99.90;;;;;;6282169;22;20010;-77
2022/12/11 06:49:49;;;;;;;41.33;13.95;;;2.90;99.90;;;;;;6231004;22;20298;-76
2022/12/11 06:53:07;;;;;;;37.50;13.18;;;1.00;99.90;;;;;;6205480;22;20008;-78
2022/12/11 06:55:42;;;;;;;38.25;12.85;;;-0.30;99.90;;;;;;6229742;22;20023;-77
2022/12/11 06:59:03;;;;;;;;;;;;;;;;;;;;;
2022/12/11 07:02:20;;;;;;;49.00;15.13;;;0.70;99.90;;;;;;6140500;23;20028;-80
2022/12/11 07:04:46;;;;;;;44.10;14.02;;;0.40;99.90;;;;;;6199429;23;20066;-78
2022/12/11 07:07:12;;;;;;;41.13;13.68;;;0.50;99.90;;;;;;6199740;23;20575;-79
2022/12/11 07:09:46;;;;;;;36.58;13.10;;;3.20;99.90;;;;;;6224958;23;20010;-78
2022/12/11 07:12:18;;;;;;;40.10;14.18;;;1.00;99.90;;;;;;6201018;23;20012;-79
2022/12/11 07:14:46;;;;;;;44.67;13.43;;;1.40;99.90;;;;;;6225464;23;20019;-80
2022/12/11 07:17:15;;;;;;;45.33;14.68;;;2.50;99.90;;;;;;6200485;23;20241;-79
2022/12/11 07:19:41;;;;;;;44.33;13.40;;;0.90;99.90;;;;;;6176605;23;20019;-79
2022/12/11 07:22:09;;;;;;;42.42;12.98;;;2.40;99.90;;;;;;6200999;23;20039;-81
2022/12/11 07:25:05;;;;;;;41.67;13.48;;;1.50;99.90;;;;;;6226768;23;20206;-79
2022/12/11 07:28:00;;;;;;;42.35;13.65;;;1.00;99.90;;;;;;6158048;23;20103;-78
2022/12/11 07:30:32;;;;;;;41.72;13.02;;;3.20;99.90;;;;;;6205129;23;20358;-77
2022/12/11 07:33:07;;;;;;;42.38;13.80;;;0.90;99.90;;;;;;6198833;23;20012;-78
2022/12/11 07:35:45;;;;;;;40.78;14.52;;;2.60;99.90;;;;;;6175628;23;20462;-80
2022/12/11 07:38:15;;;;;;;41.03;12.32;;;1.80;99.90;;;;;;6151825;23;20287;-78
2022/12/11 07:40:41;;;;;;;28.92;10.48;;;1.30;99.90;;;;;;6200506;23;20089;-78
2022/12/11 07:43:07;;;;;;;38.13;11.57;;;2.80;99.90;;;;;;6250730;23;20307;-80
2022/12/11 07:45:33;;;;;;;33.90;11.07;;;2.90;99.90;;;;;;6224957;23;20012;-80
2022/12/11 07:48:06;;;;;;;37.33;11.57;;;0.80;99.90;;;;;;6200442;23;20015;-80
2022/12/11 07:50:31;;;;;;;35.15;11.05;;;1.00;99.90;;;;;;6199758;23;20008;-77
2022/12/11 07:52:57;;;;;;;37.22;12.80;;;2.30;99.90;;;;;;6176962;23;20314;-77
2022/12/11 07:55:23;;;;;;;33.67;12.27;;;1.00;99.90;;;;;;6201094;23;20020;-75
2022/12/11 07:57:51;;;;;;;44.10;12.35;;;3.00;99.90;;;;;;6200378;23;20264;-78
2022/12/11 08:00:37;;;;;;;42.85;13.90;;;1.00;99.90;;;;;;6199935;23;20020;-76
2022/12/11 08:03:03;;;;;;;45.95;12.93;;;0.50;99.90;;;;;;6225138;23;20311;-77
2022/12/11 08:05:38;;;;;;;39.10;12.63;;;-0.80;99.90;;;;;;6175807;23;20046;-79
2022/12/11 08:08:31;;;;;;;44.72;12.82;;;1.40;99.90;;;;;;6201122;23;20058;-78
2022/12/11 08:11:32;;;;;;;35.65;12.20;;;0.60;99.90;;;;;;6182720;23;20075;-76
2022/12/11 08:13:58;;;;;;;32.67;11.80;;;2.40;99.90;;;;;;6169322;23;20045;-76
2022/12/11 08:16:45;;;;;;;46.05;13.00;;;1.00;99.90;;;;;;6174902;23;20019;-79
2022/12/11 08:19:11;;;;;;;41.88;13.18;;;-0.40;99.90;;;;;;6173969;23;20043;-76
2022/12/11 08:22:02;;;;;;;39.22;13.15;;;-0.70;99.90;;;;;;6175254;23;20183;-80
2022/12/11 08:24:36;;;;;;;37.80;13.00;;;0.90;99.90;;;;;;6222732;23;20012;-79
2022/12/11 08:31:34;;;;;;;34.45;12.77;;;1.30;99.90;;;;;;6160711;23;20046;-77
2022/12/11 08:34:00;;;;;;;32.67;10.45;;;1.70;99.90;;;;;;6028370;23;20300;-77
2022/12/11 08:36:26;;;;;;;45.97;13.13;;;0.90;99.90;;;;;;6146648;23;20118;-77
2022/12/11 08:38:56;;;;;;;41.00;13.68;;;-0.60;99.90;;;;;;6198271;23;20016;-78
2022/12/11 08:42:14;;;;;;;39.22;12.50;;;3.20;99.90;;;;;;6225130;23;20055;-78
2022/12/11 08:44:43;;;;;;;37.00;14.03;;;1.00;99.90;;;;;;6186445;23;20236;-78
2022/12/11 08:47:24;;;;;;;30.15;10.70;;;0.90;99.90;;;;;;6199096;23;20346;-77
2022/12/11 08:50:33;;;;;;;32.63;12.77;;;1.00;99.90;;;;;;6181039;23;20015;-78
2022/12/11 08:52:59;;;;;;;36.10;11.95;;;1.20;99.90;;;;;;6199065;23;20016;-78
2022/12/11 08:55:41;;;;;;;27.90;9.63;;;1.30;99.90;;;;;;6148159;23;20070;-77
2022/12/11 09:01:44;;;;;;;34.83;12.27;;;0.70;99.90;;;;;;6120601;23;20061;-79
2022/12/11 09:04:54;;;;;;;45.08;12.77;;;-0.10;99.90;;;;;;6001102;23;20210;-78
2022/12/11 09:07:23;;;;;;;46.80;13.80;;;-0.20;99.90;;;;;;6111369;23;20068;-78
2022/12/11 09:09:49;;;;;;;42.80;15.07;;;0.90;99.90;;;;;;6109066;23;20088;-78
2022/12/11 09:12:14;;;;;;;39.17;13.48;;;-0.50;99.90;;;;;;6161105;22;20328;-76
2022/12/11 09:14:43;;;;;;;45.67;15.38;;;1.10;99.90;;;;;;6203106;22;20011;-76
2022/12/11 09:17:14;;;;;;;43.88;13.70;;;0.30;99.90;;;;;;6228466;22;20034;-77
2022/12/11 09:19:40;;;;;;;38.45;12.75;;;1.40;99.90;;;;;;6227385;22;20012;-78
2022/12/11 09:22:13;;;;;;;40.85;14.13;;;1.10;99.90;;;;;;6228998;22;20225;-78
2022/12/11 09:25:00;;;;;;;;;;;;;;;;;;;;;
2022/12/11 09:28:00;;;;;;;31.58;11.70;;;1.00;99.90;;;;;;6280138;22;20223;-78
2022/12/11 09:31:33;;;;;;;41.40;12.45;;;2.20;99.90;;;;;;6235894;22;20007;-79
2022/12/11 09:37:51;;;;;;;42.72;13.20;;;0.40;99.90;;;;;;6280620;22;20507;-76
2022/12/11 09:40:43;;;;;;;54.47;16.55;;;0.80;99.90;;;;;;6229681;22;20328;-78
2022/12/11 09:43:38;;;;;;;44.05;13.55;;;3.40;99.90;;;;;;6213960;22;20015;-79
2022/12/11 09:46:23;;;;;;;;;;;;;;;;;;;;;
2022/12/11 09:48:52;;;;;;;36.63;11.55;;;1.10;99.90;;;;;;6251288;22;20018;-77
2022/12/11 09:51:27;;;;;;;51.88;16.45;;;1.00;99.90;;;;;;6229168;22;20035;-77
2022/12/11 09:53:58;;;;;;;44.17;14.02;;;0.90;99.90;;;;;;6253082;22;20016;-77
2022/12/11 09:57:19;;;;;;;43.75;14.57;;;1.30;99.90;;;;;;6253542;22;20015;-77
2022/12/11 10:00:18;;;;;;;;;;;;;;;;;;;;;
2022/12/11 10:06:56;;;;;;;58.67;17.45;;;-0.30;99.90;;;;;;6249026;22;20020;-78
2022/12/11 10:10:01;;;;;;;46.45;15.77;;;1.10;99.90;;;;;;6279379;22;20284;-78
2022/12/11 10:13:16;;;;;;;50.08;15.85;;;-0.60;99.90;;;;;;6254045;22;20015;-77
2022/12/11 10:16:18;;;;;;;39.50;13.77;;;1.20;99.90;;;;;;6078378;23;20014;-77
2022/12/11 10:18:55;;;;;;;47.03;14.60;;;1.90;99.90;;;;;;6112982;22;20023;-78
2022/12/11 10:21:23;;;;;;;58.38;17.65;;;1.20;99.90;;;;;;6229695;22;20063;-78
2022/12/11 10:24:08;;;;;;;49.75;15.80;;;3.10;99.90;;;;;;6228688;22;20022;-78
2022/12/11 10:26:50;;;;;;;;;;;;;;;;;;;;;
2022/12/11 10:29:19;;;;;;;60.92;19.92;;;1.20;99.90;;;;;;6231203;22;20019;-78
2022/12/11 10:31:57;;;;;;;48.72;15.57;;;1.30;99.90;;;;;;6196727;22;20027;-77
2022/12/11 10:34:41;;;;;;;49.20;16.50;;;1.20;99.90;;;;;;6226744;22;20011;-78
2022/12/11 10:37:13;;;;;;;38.97;12.48;;;1.20;99.90;;;;;;6225858;22;20039;-78
2022/12/11 10:39:42;;;;;;;81.28;19.65;;;1.10;99.90;;;;;;6228700;22;20012;-73
2022/12/11 10:42:21;;;;;;;59.25;18.63;;;1.90;99.90;;;;;;6202441;22;20079;-79
2022/12/11 10:45:04;;;;;;;52.05;16.48;;;1.20;99.90;;;;;;6227029;22;20301;-78
2022/12/11 10:47:33;;;;;;;45.45;15.45;;;1.50;99.90;;;;;;6228225;22;20447;-79
2022/12/11 10:50:03;;;;;;;45.95;15.02;;;1.60;99.90;;;;;;6253087;22;20014;-79
2022/12/11 10:52:48;;;;;;;57.67;18.77;;;1.40;99.90;;;;;;6203750;22;20306;-80
2022/12/11 10:55:38;;;;;;;57.30;17.98;;;1.10;99.90;;;;;;6225168;22;20020;-79
2022/12/11 10:58:19;;;;;;;44.42;14.40;;;2.80;99.90;;;;;;6223722;22;20015;-79
2022/12/11 11:00:47;;;;;;;37.80;13.27;;;1.50;99.90;;;;;;6250370;22;20023;-79
2022/12/11 11:04:12;;;;;;;52.72;17.80;;;1.30;99.90;;;;;;6228994;22;20538;-79
2022/12/11 11:06:40;;;;;;;45.03;16.13;;;1.20;99.90;;;;;;6200037;22;20314;-79
2022/12/11 11:09:34;;;;;;;42.10;12.93;;;1.30;99.90;;;;;;6229067;22;20014;-79
2022/12/11 11:12:00;;;;;;;37.88;13.32;;;1.30;99.90;;;;;;6229467;22;20070;-80
2022/12/11 11:15:02;;;;;;;38.47;13.25;;;1.30;99.90;;;;;;6228598;22;20049;-80
2022/12/11 11:17:33;;;;;;;51.80;16.80;;;3.00;99.90;;;;;;6229724;22;20242;-80
2022/12/11 11:20:28;;;;;;;42.92;14.85;;;1.20;99.90;;;;;;6227693;22;20011;-79
2022/12/11 11:23:03;;;;;;;53.92;17.10;;;1.60;99.90;;;;;;6227720;22;20178;-80
2022/12/11 11:25:37;;;;;;;51.30;17.10;;;1.30;99.90;;;;;;6229238;22;20012;-77
2022/12/11 11:28:20;;;;;;;54.90;19.13;;;1.40;99.90;;;;;;6204144;22;20016;-79
2022/12/11 11:31:01;;;;;;;48.08;15.18;;;1.70;99.90;;;;;;6228005;22;20016;-78
2022/12/11 11:33:50;;;;;;;48.35;15.88;;;1.50;99.90;;;;;;6228912;22;20214;-78
2022/12/11 11:36:39;;;;;;;48.13;17.42;;;1.20;99.90;;;;;;6225069;22;20066;-79
2022/12/11 11:39:44;;;;;;;37.25;14.00;;;1.40;99.90;;;;;;6224811;22;20019;-79
2022/12/11 11:42:26;;;;;;;42.65;14.57;;;1.30;99.90;;;;;;6227108;22;20424;-79
2022/12/11 11:45:01;;;;;;;38.65;14.05;;;1.30;99.90;;;;;;6229273;22;20012;-76
2022/12/11 11:47:40;;;;;;;51.80;17.40;;;3.00;99.90;;;;;;6254791;22;20016;-77
2022/12/11 11:50:17;;;;;;;43.30;14.75;;;1.40;99.90;;;;;;6254121;22;20015;-79
2022/12/11 11:53:11;;;;;;;44.25;14.57;;;1.30;99.90;;;;;;6225957;22;20337;-79
2022/12/11 11:55:55;;;;;;;38.60;14.63;;;1.40;99.90;;;;;;6253877;22;20368;-77
2022/12/11 12:02:01;;;;;;;41.08;15.00;;;1.60;99.90;;;;;;6238044;22;20055;-79
2022/12/11 12:04:50;;;;;;;;;;;;;;;;;;;;;
2022/12/11 12:08:11;;;;;;;;;;;;;;;;;;;;;
2022/12/11 12:11:11;;;;;;;43.72;14.25;;;1.90;99.90;;;;;;6252366;22;20409;-79
2022/12/11 12:14:07;;;;;;;42.15;15.70;;;0.30;99.90;;;;;;6227063;22;20019;-77
2022/12/11 12:16:45;;;;;;;46.75;16.35;;;1.60;99.90;;;;;;6225445;22;20041;-78
2022/12/11 12:19:29;;;;;;;52.10;18.00;;;2.60;99.90;;;;;;6251982;22;20069;-78
2022/12/11 12:22:54;;;;;;;43.90;17.50;;;1.60;99.90;;;;;;6226326;22;20058;-79
2022/12/11 12:25:30;;;;;;;;;;;;;;;;;;;;;
2022/12/11 12:29:00;;;;;;;;;;;;;;;;;;;;;
2022/12/11 12:32:32;;;;;;;51.33;17.25;;;0.30;99.90;;;;;;6126871;23;20252;-79
2022/12/11 12:35:15;;;;;;;48.03;16.83;;;1.50;99.90;;;;;;6016232;23;20106;-78
2022/12/11 12:38:19;;;;;;;44.40;16.30;;;1.60;99.90;;;;;;6079043;23;20022;-78
2022/12/11 12:41:16;;;;;;;;;;;;;;;;;;;;;
2022/12/11 12:43:53;;;;;;;35.28;13.80;;;1.40;99.90;;;;;;6217741;22;20069;-77
2022/12/11 12:46:54;;;;;;;48.67;16.63;;;1.60;99.90;;;;;;6253810;22;20341;-77
2022/12/11 12:49:41;;;;;;;45.30;16.00;;;3.00;99.90;;;;;;6227205;22;20012;-78
2022/12/11 12:52:43;;;;;;;43.35;15.10;;;1.60;99.90;;;;;;6225547;22;20013;-77
2022/12/11 12:55:35;;;;;;;48.72;16.83;;;1.70;99.90;;;;;;6227897;22;20014;-78
2022/12/11 12:58:27;;;;;;;39.83;14.30;;;1.50;99.90;;;;;;6252433;22;20033;-79
2022/12/11 13:01:00;;;;;;;37.08;14.15;;;1.50;99.90;;;;;;6224026;22;20389;-79
2022/12/11 13:03:35;;;;;;;37.42;13.10;;;2.00;99.90;;;;;;6204350;22;20317;-78
2022/12/11 13:06:10;;;;;;;47.00;15.63;;;1.70;99.90;;;;;;6224883;22;20198;-78
2022/12/11 13:08:41;;;;;;;;;;;1.40;99.90;;;;;;6227501;22;20007;-77
2022/12/11 13:11:59;;;;;;;52.88;17.95;;;1.00;99.90;;;;;;6216957;22;19935;-79
2022/12/11 13:15:01;;;;;;;44.17;15.45;;;1.40;99.90;;;;;;6227751;22;20108;-79
2022/12/11 13:17:53;;;;;;;45.58;15.85;;;1.90;99.90;;;;;;6221287;22;20015;-80
2022/12/11 13:20:29;;;;;;;58.17;18.10;;;2.00;99.90;;;;;;6203110;22;20442;-79
2022/12/11 13:26:33;;;;;;;44.85;16.35;;;2.30;99.90;;;;;;6247877;22;20039;-77
2022/12/11 13:29:33;;;;;;;46.13;17.08;;;1.80;99.90;;;;;;6226264;22;20015;-77
2022/12/11 13:35:35;;;;;;;43.67;16.02;;;3.60;99.90;;;;;;6226293;22;20038;-77
2022/12/11 13:38:22;;;;;;;45.33;17.08;;;1.40;99.90;;;;;;6228301;22;20079;-77
2022/12/11 13:40:58;;;;;;;;;;;3.00;99.90;;;;;;6208150;22;20019;-78
2022/12/11 13:43:30;;;;;;;52.08;17.55;;;3.50;99.90;;;;;;6204487;22;19942;-78
2022/12/11 13:46:01;;;;;;;41.63;14.02;;;1.70;99.90;;;;;;6253877;22;20034;-78
2022/12/11 13:48:47;;;;;;;47.38;17.27;;;1.50;99.90;;;;;;6253213;22;20050;-79
2022/12/11 13:51:21;;;;;;;42.28;15.15;;;1.40;99.90;;;;;;6237446;22;20209;-79
2022/12/11 13:54:11;;;;;;;53.40;17.75;;;1.80;99.90;;;;;;6202799;22;20015;-79
2022/12/11 13:56:44;;;;;;;52.22;19.90;;;2.10;99.90;;;;;;6227985;22;20008;-77
2022/12/11 13:59:28;;;;;;;54.42;16.98;;;1.40;99.90;;;;;;6204796;22;20008;-78
2022/12/11 14:02:11;;;;;;;50.72;17.42;;;1.60;99.90;;;;;;6251828;22;20228;-77
2022/12/11 14:08:41;;;;;;;35.85;13.85;;;1.50;99.90;;;;;;6156603;23;20515;-78
2022/12/11 14:11:07;;;;;;;41.33;14.55;;;1.60;99.90;;;;;;6240522;22;20014;-78
2022/12/11 14:13:42;;;;;;;50.90;17.67;;;3.10;99.90;;;;;;6203980;22;20007;-79
2022/12/11 14:16:08;;;;;;;43.05;16.60;;;1.40;99.90;;;;;;6229217;22;20229;-79
2022/12/11 14:18:37;;;;;;;40.15;14.60;;;1.50;99.90;;;;;;6177637;22;20016;-78
2022/12/11 14:21:05;;;;;;;45.80;16.67;;;1.60;99.90;;;;;;6227849;22;20016;-76
2022/12/11 14:23:36;;;;;;;42.08;16.92;;;1.40;99.90;;;;;;6253680;22;20011;-77
2022/12/11 14:26:21;;;;;;;42.53;14.60;;;1.60;99.90;;;;;;6251727;22;20071;-79
2022/12/11 14:32:53;;;;;;;45.92;17.48;;;1.60;99.90;;;;;;6252279;22;20306;-78
2022/12/11 14:36:04;;;;;;;46.35;17.85;;;2.40;99.90;;;;;;6278159;22;20043;-78
2022/12/11 14:38:51;;;;;;;45.10;17.33;;;2.00;99.90;;;;;;6225454;22;20242;-78
2022/12/11 14:41:38;;;;;;;45.00;17.02;;;2.60;99.90;;;;;;6249067;22;20013;-78
2022/12/11 14:44:29;;;;;;;54.55;17.85;;;1.60;99.90;;;;;;6225786;22;20305;-79
2022/12/11 14:47:18;;;;;;;46.28;17.10;;;0.00;99.90;;;;;;6227914;22;20033;-79
2022/12/11 14:53:31;;;;;;;39.30;14.55;;;0.30;99.90;;;;;;6251995;22;20016;-78
2022/12/11 15:15:58;;;;;;;53.63;18.30;;;0.80;99.90;;;;;;5068508;28;20063;-77
2022/12/11 15:18:34;;;;;;;33.53;14.10;;;1.40;99.90;;;;;;5069725;28;20128;-79
2022/12/11 15:21:10;;;;;;;44.35;16.77;;;1.10;99.90;;;;;;5038821;28;20045;-79
2022/12/11 15:27:25;;;;;;;49.60;17.80;;;2.00;99.90;;;;;;5044179;28;20060;-79
2022/12/11 15:30:14;;;;;;;51.60;17.67;;;2.60;99.90;;;;;;5048759;28;20136;-80
2022/12/11 15:35:57;;;;;;;54.05;19.50;;;1.20;99.90;;;;;;5034338;28;20208;-76
2022/12/11 15:38:50;;;;;;;;;;;;;;;;;;;;;
2022/12/11 15:41:35;;;;;;;;;;;;;;;;;;;;;
2022/12/11 15:44:05;;;;;;;45.67;17.33;;;1.10;99.90;;;;;;5053716;28;20041;-77
2022/12/11 15:47:01;;;;;;;;;;;;;;;;;;;;;
2022/12/11 15:49:27;;;;;;;43.78;17.15;;;1.70;99.90;;;;;;5052393;28;20231;-78
2022/12/11 15:52:26;;;;;;;;;;;;;;;;;;;;;
2022/12/11 15:54:57;;;;;;;53.10;17.85;;;0.60;99.90;;;;;;5061236;28;20036;-79
2022/12/11 15:58:24;;;;;;;49.78;17.67;;;1.40;99.90;;;;;;5018414;28;20212;-78
2022/12/11 16:00:53;;;;;;;53.25;19.55;;;3.00;99.90;;;;;;5012073;28;20033;-80
2022/12/11 16:03:25;;;;;;;;;;;1.60;99.90;;;;;;5034939;28;20040;-81
2022/12/11 16:10:00;;;;;;;67.90;24.40;;;0.30;99.90;;;;;;5055465;28;20041;-77
2022/12/11 16:12:34;;;;;;;52.78;19.40;;;1.30;99.90;;;;;;5032557;28;20132;-79
2022/12/11 16:15:13;;;;;;;53.35;19.38;;;1.60;99.90;;;;;;5031639;28;20076;-78
2022/12/11 16:17:48;;;;;;;49.22;19.38;;;1.60;99.90;;;;;;5044055;28;20578;-78
2022/12/11 16:20:14;;;;;;;53.03;19.02;;;2.90;99.90;;;;;;5080901;28;20122;-78
2022/12/11 16:22:39;;;;;;;54.88;19.98;;;1.30;99.90;;;;;;5028226;28;20053;-77
2022/12/11 16:25:08;;;;;;;53.03;19.02;;;3.00;99.90;;;;;;5045882;28;20341;-78
2022/12/11 16:27:37;;;;;;;45.22;16.60;;;0.60;99.90;;;;;;5057253;28;20060;-79
2022/12/11 16:30:06;;;;;;;49.45;18.83;;;1.80;99.90;;;;;;5059641;28;20313;-79
2022/12/11 16:33:25;;;;;;;48.95;17.92;;;1.30;99.90;;;;;;5075316;28;20047;-78
2022/12/11 16:39:34;;;;;;;51.40;18.20;;;1.20;99.90;;;;;;5007097;28;20112;-77